Sunday, April 19, 2015, 5:21 AM EDT

KLKU, Louisa, Louisa County Airport/freeman Field

Location: Louisa, VA, United States Lat: 38.01
Local Time: 5:21 AM EDT ( 9:21 GMT) Lon: -77.97
Time Zone: US/Eastern Elev: 492 ft

Show me the last for .
Show Decoded

2015-04-19 04:55 METAR KLKU 190855Z AUTO 00000KT 10SM CLR 11/09 A3002 RMK AO2 =
2015-04-19 04:35 METAR KLKU 190835Z AUTO 00000KT 10SM CLR 11/10 A3002 RMK AO2 =
2015-04-19 04:15 METAR KLKU 190815Z AUTO 00000KT 10SM CLR 11/09 A3002 RMK AO2 =
2015-04-19 03:55 METAR KLKU 190755Z AUTO 00000KT 10SM CLR 11/10 A3002 RMK AO2 =
2015-04-19 03:35 METAR KLKU 190735Z AUTO 00000KT 10SM CLR 11/10 A3002 RMK AO2 =
2015-04-19 03:15 METAR KLKU 190715Z AUTO 00000KT 10SM CLR 12/10 A3001 RMK AO2 =
2015-04-19 02:55 METAR KLKU 190655Z AUTO 00000KT 10SM CLR 12/10 A3001 RMK AO2 =
2015-04-19 02:35 METAR KLKU 190635Z AUTO 00000KT 10SM CLR 12/10 A3002 RMK AO2 =
2015-04-19 02:15 METAR KLKU 190615Z AUTO 00000KT 10SM CLR 12/10 A3002 RMK AO2 =
2015-04-19 01:55 METAR KLKU 190555Z AUTO 00000KT 10SM CLR 13/10 A3002 RMK AO2 =
2015-04-19 01:35 METAR KLKU 190535Z AUTO 00000KT 10SM CLR 12/10 A3002 RMK AO2 =
2015-04-19 01:15 METAR KLKU 190515Z AUTO 00000KT 10SM CLR 13/09 A3002 RMK AO2 =
2015-04-19 00:55 METAR KLKU 190455Z AUTO 00000KT 10SM CLR 13/09 A3002 RMK AO2 =
2015-04-19 00:35 METAR KLKU 190435Z AUTO 00000KT 10SM CLR 12/10 A3002 RMK AO2 =
2015-04-19 00:15 METAR KLKU 190415Z AUTO 00000KT 10SM CLR 13/10 A3003 RMK AO2 =
2015-04-18 23:55 METAR KLKU 190355Z AUTO 00000KT 10SM CLR 14/09 A3002 RMK AO2 =
2015-04-18 23:35 METAR KLKU 190335Z AUTO 15003KT 10SM CLR 13/09 A3003 RMK AO2 =
2015-04-18 23:15 METAR KLKU 190315Z AUTO 15003KT 10SM CLR 15/09 A3002 RMK AO2 =
2015-04-18 22:55 METAR KLKU 190255Z AUTO 00000KT 10SM CLR 14/09 A3002 RMK AO2 =
2015-04-18 22:35 METAR KLKU 190235Z AUTO 00000KT 10SM CLR 14/09 A3002 RMK AO2 =
2015-04-18 22:15 METAR KLKU 190215Z AUTO 00000KT 10SM CLR 14/09 A3001 RMK AO2 =
2015-04-18 21:35 METAR KLKU 190135Z AUTO 00000KT 10SM CLR 15/10 A2999 RMK AO2 =
2015-04-18 21:15 METAR KLKU 190115Z AUTO 00000KT 10SM CLR 15/10 A2999 RMK AO2 =
2015-04-18 20:55 METAR KLKU 190055Z AUTO 00000KT 10SM CLR 16/11 A2999 RMK AO2 =
2015-04-18 20:35 METAR KLKU 190035Z AUTO 00000KT 10SM CLR 16/11 A2999 RMK AO2 =
2015-04-18 20:15 METAR KLKU 190015Z AUTO 00000KT 10SM CLR 17/12 A2998 RMK AO2 =
2015-04-18 19:55 METAR KLKU 182355Z AUTO 00000KT 10SM CLR 18/14 A2997 RMK AO2 =
2015-04-18 19:35 METAR KLKU 182335Z AUTO 00000KT 10SM CLR 21/16 A2996 RMK AO2 =
2015-04-18 19:15 METAR KLKU 182315Z AUTO 00000KT 10SM CLR 23/15 A2995 RMK AO2 =
2015-04-18 18:55 METAR KLKU 182255Z AUTO 00000KT 10SM CLR 23/14 A2995 RMK AO2 =
2015-04-18 18:35 METAR KLKU 182235Z AUTO 00000KT 10SM CLR 25/09 A2995 RMK AO2 =
2015-04-18 18:15 METAR KLKU 182215Z AUTO 06003KT 10SM CLR 26/08 A2995 RMK AO2 =
2015-04-18 17:55 METAR KLKU 182155Z AUTO 06004KT 10SM CLR 26/08 A2995 RMK AO2 =
2015-04-18 17:35 METAR KLKU 182135Z AUTO 04004KT 10SM CLR 26/08 A2995 RMK AO2 =
2015-04-18 17:15 METAR KLKU 182115Z AUTO 06003KT 10SM CLR 27/08 A2997 RMK AO2 =
2015-04-18 16:55 METAR KLKU 182055Z AUTO 06004KT 10SM CLR 26/08 A2997 RMK AO2 =
2015-04-18 16:35 METAR KLKU 182035Z AUTO 03005KT 10SM CLR 27/08 A2997 RMK AO2 =
2015-04-18 16:15 METAR KLKU 182015Z AUTO 13003KT 10SM CLR 27/06 A2996 RMK AO2 =
2015-04-18 15:55 METAR KLKU 181955Z AUTO 02004KT 10SM CLR 27/07 A2996 RMK AO2 =
2015-04-18 15:35 METAR KLKU 181935Z AUTO 06003KT 10SM CLR 27/08 A2995 RMK AO2 =
2015-04-18 15:15 METAR KLKU 181915Z AUTO 05006KT 10SM CLR 27/08 A2996 RMK AO2 =
2015-04-18 14:55 METAR KLKU 181855Z AUTO 03006KT 10SM CLR 27/08 A2997 RMK AO2 =
2015-04-18 14:35 METAR KLKU 181835Z AUTO 00000KT 10SM CLR 26/07 A2997 RMK AO2 =
2015-04-18 14:15 METAR KLKU 181815Z AUTO 33005KT 10SM CLR 26/08 A2998 RMK AO2 =
2015-04-18 13:55 METAR KLKU 181755Z AUTO 33005KT 10SM CLR 26/08 A2999 RMK AO2 =
2015-04-18 13:35 METAR KLKU 181735Z AUTO 07006KT 10SM CLR 26/08 A3000 RMK AO2 =
2015-04-18 13:15 METAR KLKU 181715Z AUTO 00000KT 10SM CLR 25/09 A3000 RMK AO2 =
2015-04-18 12:55 METAR KLKU 181655Z AUTO 00000KT 10SM CLR 26/09 A3001 RMK AO2 =
2015-04-18 12:35 METAR KLKU 181635Z AUTO 01007KT 330V040 10SM SCT095 25/09 A3001 RMK AO2 =
2015-04-18 12:15 METAR KLKU 181615Z AUTO 03007KT 270V090 10SM CLR 25/09 A3002 RMK AO2 =
2015-04-18 11:55 METAR KLKU 181555Z AUTO 03005KT 10SM CLR 24/11 A3003 RMK AO2 =
2015-04-18 11:35 METAR KLKU 181535Z AUTO 00000KT 10SM CLR 24/12 A3003 RMK AO2 =
2015-04-18 11:15 METAR KLKU 181515Z AUTO 05004KT 10SM CLR 23/12 A3003 RMK AO2 =
2015-04-18 10:55 METAR KLKU 181455Z AUTO 01006KT 10SM CLR 23/13 A3004 RMK AO2 =
2015-04-18 10:35 METAR KLKU 181435Z AUTO 03007KT 350V050 10SM CLR 22/13 A3003 RMK AO2 =
2015-04-18 10:15 METAR KLKU 181415Z AUTO 05011KT 10SM CLR 22/13 A3003 RMK AO2 =
2015-04-18 09:55 METAR KLKU 181355Z AUTO 04008KT 10SM CLR 21/14 A3003 RMK AO2 =
2015-04-18 09:35 METAR KLKU 181335Z AUTO 01005KT 10SM CLR 21/14 A3003 RMK AO2 =
2015-04-18 09:15 METAR KLKU 181315Z AUTO 02007KT 10SM CLR 19/14 A3003 RMK AO2 =
2015-04-18 08:55 METAR KLKU 181255Z AUTO 04006KT 10SM CLR 19/14 A3003 RMK AO2 =
2015-04-18 08:35 METAR KLKU 181235Z AUTO 01004KT 10SM CLR 18/14 A3002 RMK AO2 =
2015-04-18 08:15 METAR KLKU 181215Z AUTO 01005KT 10SM CLR 17/14 A3003 RMK AO2 =
2015-04-18 07:55 METAR KLKU 181155Z AUTO 01003KT 10SM CLR 17/14 A3003 RMK AO2 =
2015-04-18 07:35 METAR KLKU 181135Z AUTO 01004KT 10SM CLR 16/14 A3003 RMK AO2 =
2015-04-18 06:55 METAR KLKU 181055Z AUTO 36004KT 10SM CLR 15/14 A3002 RMK AO2 =
2015-04-18 06:35 METAR KLKU 181035Z AUTO 36003KT 10SM CLR 15/14 A3001 RMK AO2 =
2015-04-18 06:15 METAR KLKU 181015Z AUTO 36003KT 10SM CLR 14/14 A3001 RMK AO2 =
2015-04-18 05:55 METAR KLKU 180955Z AUTO 34003KT 10SM SCT110 15/14 A3000 RMK AO2 =
2015-04-18 05:35 METAR KLKU 180935Z AUTO 34004KT 10SM SCT110 16/14 A2999 RMK AO2 =

Support USWX by starting your Amazon purchase here.